sensor_id;sensor_type;location;lat;lon;timestamp;temperature;humidity
22676;DHT22;12521;43.310;21.876;2023-06-22T00:04:02;23.0;96.0
22676;DHT22;12521;43.310;21.876;2023-06-22T00:08:38;22.9;96.0
22676;DHT22;12521;43.310;21.876;2023-06-22T00:13:16;22.9;96.0
22676;DHT22;12521;43.310;21.876;2023-06-22T00:17:53;22.8;96.0
22676;DHT22;12521;43.310;21.876;2023-06-22T00:22:29;22.8;96.0
22676;DHT22;12521;43.310;21.876;2023-06-22T00:27:06;22.8;96.0
22676;DHT22;12521;43.310;21.876;2023-06-22T00:31:43;22.8;96.0
22676;DHT22;12521;43.310;21.876;2023-06-22T00:36:19;22.8;96.0
22676;DHT22;12521;43.310;21.876;2023-06-22T00:40:56;22.7;96.0
22676;DHT22;12521;43.310;21.876;2023-06-22T00:45:33;22.7;96.0
22676;DHT22;12521;43.310;21.876;2023-06-22T00:50:21;22.6;96.0
22676;DHT22;12521;43.310;21.876;2023-06-22T00:55:05;22.6;96.0
22676;DHT22;12521;43.310;21.876;2023-06-22T00:59:45;22.4;96.0
22676;DHT22;12521;43.310;21.876;2023-06-22T01:04:38;22.4;96.0
22676;DHT22;12521;43.310;21.876;2023-06-22T01:09:33;22.2;96.0
22676;DHT22;12521;43.310;21.876;2023-06-22T01:14:42;22.2;96.0
22676;DHT22;12521;43.310;21.876;2023-06-22T01:19:47;22.2;96.0
22676;DHT22;12521;43.310;21.876;2023-06-22T01:25:06;22.2;96.0
22676;DHT22;12521;43.310;21.876;2023-06-22T01:29:52;22.1;96.0
22676;DHT22;12521;43.310;21.876;2023-06-22T01:34:41;22.1;96.0
22676;DHT22;12521;43.310;21.876;2023-06-22T01:39:21;22.0;96.0
22676;DHT22;12521;43.310;21.876;2023-06-22T01:44:04;22.0;96.0
22676;DHT22;12521;43.310;21.876;2023-06-22T01:48:43;21.9;96.0
22676;DHT22;12521;43.310;21.876;2023-06-22T01:53:21;21.9;96.0
22676;DHT22;12521;43.310;21.876;2023-06-22T01:58:00;21.8;96.0
22676;DHT22;12521;43.310;21.876;2023-06-22T02:02:54;21.8;96.0
22676;DHT22;12521;43.310;21.876;2023-06-22T02:08:05;21.7;96.0
22676;DHT22;12521;43.310;21.876;2023-06-22T02:12:59;21.7;96.0
22676;DHT22;12521;43.310;21.876;2023-06-22T02:17:47;21.7;96.0
22676;DHT22;12521;43.310;21.876;2023-06-22T02:22:25;21.6;96.0
22676;DHT22;12521;43.310;21.876;2023-06-22T02:27:04;21.6;96.0
22676;DHT22;12521;43.310;21.876;2023-06-22T02:31:41;21.6;96.0
22676;DHT22;12521;43.310;21.876;2023-06-22T02:36:18;21.6;96.0
22676;DHT22;12521;43.310;21.876;2023-06-22T02:40:55;21.5;96.0
22676;DHT22;12521;43.310;21.876;2023-06-22T02:45:31;21.5;96.0
22676;DHT22;12521;43.310;21.876;2023-06-22T02:50:09;21.3;96.0
22676;DHT22;12521;43.310;21.876;2023-06-22T02:54:46;21.3;96.0
22676;DHT22;12521;43.310;21.876;2023-06-22T02:59:23;21.2;96.0
22676;DHT22;12521;43.310;21.876;2023-06-22T03:03:59;21.2;96.0
22676;DHT22;12521;43.310;21.876;2023-06-22T03:08:36;21.2;96.0
22676;DHT22;12521;43.310;21.876;2023-06-22T03:13:12;21.2;96.0
22676;DHT22;12521;43.310;21.876;2023-06-22T03:17:49;21.2;96.0
22676;DHT22;12521;43.310;21.876;2023-06-22T03:22:26;21.2;96.0
22676;DHT22;12521;43.310;21.876;2023-06-22T03:27:03;21.2;96.0
22676;DHT22;12521;43.310;21.876;2023-06-22T03:31:41;21.1;96.0
22676;DHT22;12521;43.310;21.876;2023-06-22T03:36:19;21.1;96.0
22676;DHT22;12521;43.310;21.876;2023-06-22T03:40:56;21.0;96.0
22676;DHT22;12521;43.310;21.876;2023-06-22T03:45:32;21.0;96.0
22676;DHT22;12521;43.310;21.876;2023-06-22T03:50:10;21.0;96.0
22676;DHT22;12521;43.310;21.876;2023-06-22T03:54:46;21.0;96.0
22676;DHT22;12521;43.310;21.876;2023-06-22T03:59:23;21.0;96.0
22676;DHT22;12521;43.310;21.876;2023-06-22T04:04:00;21.0;96.0
22676;DHT22;12521;43.310;21.876;2023-06-22T04:08:37;21.1;96.0
22676;DHT22;12521;43.310;21.876;2023-06-22T04:13:14;21.1;96.0
22676;DHT22;12521;43.310;21.876;2023-06-22T04:17:50;21.1;96.0
22676;DHT22;12521;43.310;21.876;2023-06-22T04:22:27;21.2;96.0
22676;DHT22;12521;43.310;21.876;2023-06-22T04:27:05;21.2;96.0
22676;DHT22;12521;43.310;21.876;2023-06-22T04:31:42;21.2;96.0
22676;DHT22;12521;43.310;21.876;2023-06-22T04:36:19;21.2;96.0
22676;DHT22;12521;43.310;21.876;2023-06-22T04:40:56;21.3;96.0
22676;DHT22;12521;43.310;21.876;2023-06-22T04:45:33;21.3;96.0
22676;DHT22;12521;43.310;21.876;2023-06-22T04:50:10;21.4;96.0
22676;DHT22;12521;43.310;21.876;2023-06-22T04:54:47;21.4;96.0
22676;DHT22;12521;43.310;21.876;2023-06-22T04:59:30;21.4;96.0
22676;DHT22;12521;43.310;21.876;2023-06-22T05:04:08;21.4;96.0
22676;DHT22;12521;43.310;21.876;2023-06-22T05:22:34;21.1;96.0
22676;DHT22;12521;43.310;21.876;2023-06-22T05:27:10;21.1;96.0
22676;DHT22;12521;43.310;21.876;2023-06-22T05:31:47;21.1;96.0
22676;DHT22;12521;43.310;21.876;2023-06-22T05:36:23;21.1;96.0
22676;DHT22;12521;43.310;21.876;2023-06-22T05:41:00;21.4;96.0
22676;DHT22;12521;43.310;21.876;2023-06-22T05:45:37;21.4;96.0
22676;DHT22;12521;43.310;21.876;2023-06-22T05:50:13;21.6;96.0
22676;DHT22;12521;43.310;21.876;2023-06-22T05:54:50;21.6;96.0
22676;DHT22;12521;43.310;21.876;2023-06-22T05:59:26;22.0;96.0
22676;DHT22;12521;43.310;21.876;2023-06-22T06:04:04;22.0;96.0
22676;DHT22;12521;43.310;21.876;2023-06-22T06:08:41;22.5;96.0
22676;DHT22;12521;43.310;21.876;2023-06-22T06:13:18;22.5;96.0
22676;DHT22;12521;43.310;21.876;2023-06-22T06:17:55;22.5;96.0
22676;DHT22;12521;43.310;21.876;2023-06-22T06:22:31;22.9;96.0
22676;DHT22;12521;43.310;21.876;2023-06-22T06:27:08;22.9;96.0
22676;DHT22;12521;43.310;21.876;2023-06-22T06:31:44;23.3;96.0
22676;DHT22;12521;43.310;21.876;2023-06-22T06:36:21;23.3;96.0
22676;DHT22;12521;43.310;21.876;2023-06-22T06:40:59;23.6;96.0
22676;DHT22;12521;43.310;21.876;2023-06-22T06:45:35;23.6;96.0
22676;DHT22;12521;43.310;21.876;2023-06-22T06:50:13;24.0;96.0
22676;DHT22;12521;43.310;21.876;2023-06-22T06:54:49;24.0;96.0
22676;DHT22;12521;43.310;21.876;2023-06-22T06:59:26;24.2;96.0
22676;DHT22;12521;43.310;21.876;2023-06-22T07:04:04;24.2;96.0
22676;DHT22;12521;43.310;21.876;2023-06-22T07:08:40;24.5;96.0
22676;DHT22;12521;43.310;21.876;2023-06-22T07:13:16;24.5;96.0
22676;DHT22;12521;43.310;21.876;2023-06-22T07:17:53;24.5;96.0
22676;DHT22;12521;43.310;21.876;2023-06-22T07:22:30;24.8;96.0
22676;DHT22;12521;43.310;21.876;2023-06-22T07:27:07;24.8;96.0
22676;DHT22;12521;43.310;21.876;2023-06-22T07:31:45;25.2;96.0
22676;DHT22;12521;43.310;21.876;2023-06-22T07:36:29;25.2;96.0
22676;DHT22;12521;43.310;21.876;2023-06-22T07:41:06;25.4;96.0
22676;DHT22;12521;43.310;21.876;2023-06-22T07:45:50;25.4;96.0
22676;DHT22;12521;43.310;21.876;2023-06-22T07:50:26;25.7;96.0
22676;DHT22;12521;43.310;21.876;2023-06-22T07:55:05;25.7;96.0
22676;DHT22;12521;43.310;21.876;2023-06-22T07:59:42;26.0;96.0
22676;DHT22;12521;43.310;21.876;2023-06-22T08:04:18;26.0;96.0
22676;DHT22;12521;43.310;21.876;2023-06-22T08:08:54;26.4;96.0
22676;DHT22;12521;43.310;21.876;2023-06-22T08:13:31;26.4;96.0
22676;DHT22;12521;43.310;21.876;2023-06-22T08:18:08;26.4;96.0
22676;DHT22;12521;43.310;21.876;2023-06-22T08:22:44;26.6;96.0
22676;DHT22;12521;43.310;21.876;2023-06-22T08:27:21;26.6;96.0
22676;DHT22;12521;43.310;21.876;2023-06-22T08:31:57;26.9;96.0
22676;DHT22;12521;43.310;21.876;2023-06-22T08:36:34;26.9;96.0
22676;DHT22;12521;43.310;21.876;2023-06-22T08:41:11;27.2;96.0
22676;DHT22;12521;43.310;21.876;2023-06-22T08:45:48;27.2;96.0
22676;DHT22;12521;43.310;21.876;2023-06-22T08:50:26;27.6;96.0
22676;DHT22;12521;43.310;21.876;2023-06-22T08:55:06;27.6;96.0
22676;DHT22;12521;43.310;21.876;2023-06-22T08:59:45;27.9;96.0
22676;DHT22;12521;43.310;21.876;2023-06-22T09:04:22;27.9;96.0
22676;DHT22;12521;43.310;21.876;2023-06-22T09:09:01;28.2;96.0
22676;DHT22;12521;43.310;21.876;2023-06-22T09:13:37;28.2;96.0
22676;DHT22;12521;43.310;21.876;2023-06-22T09:18:15;28.6;96.0
22676;DHT22;12521;43.310;21.876;2023-06-22T09:22:51;28.6;96.0
22676;DHT22;12521;43.310;21.876;2023-06-22T09:27:29;28.6;96.0
22676;DHT22;12521;43.310;21.876;2023-06-22T09:32:08;29.0;96.0
22676;DHT22;12521;43.310;21.876;2023-06-22T09:36:44;29.0;96.0
22676;DHT22;12521;43.310;21.876;2023-06-22T09:41:22;29.2;96.0
22676;DHT22;12521;43.310;21.876;2023-06-22T09:46:00;29.2;96.0
22676;DHT22;12521;43.310;21.876;2023-06-22T09:50:37;29.5;96.0
22676;DHT22;12521;43.310;21.876;2023-06-22T09:55:14;29.5;96.0
22676;DHT22;12521;43.310;21.876;2023-06-22T09:59:51;29.8;96.0
22676;DHT22;12521;43.310;21.876;2023-06-22T10:04:28;29.8;96.0
22676;DHT22;12521;43.310;21.876;2023-06-22T10:09:07;30.0;96.0
22676;DHT22;12521;43.310;21.876;2023-06-22T10:13:44;30.0;96.0
22676;DHT22;12521;43.310;21.876;2023-06-22T10:18:21;30.2;93.0
22676;DHT22;12521;43.310;21.876;2023-06-22T10:22:58;30.2;93.0
22676;DHT22;12521;43.310;21.876;2023-06-22T10:27:35;30.2;93.0
22676;DHT22;12521;43.310;21.876;2023-06-22T10:32:12;30.4;91.0
22676;DHT22;12521;43.310;21.876;2023-06-22T10:36:49;30.4;91.0
22676;DHT22;12521;43.310;21.876;2023-06-22T10:41:25;30.8;91.0
22676;DHT22;12521;43.310;21.876;2023-06-22T10:46:02;30.8;91.0
22676;DHT22;12521;43.310;21.876;2023-06-22T10:50:38;31.1;91.0
22676;DHT22;12521;43.310;21.876;2023-06-22T10:55:14;31.1;91.0
22676;DHT22;12521;43.310;21.876;2023-06-22T10:59:51;31.4;91.0
22676;DHT22;12521;43.310;21.876;2023-06-22T11:04:28;31.4;91.0
22676;DHT22;12521;43.310;21.876;2023-06-22T11:09:05;31.8;90.0
22676;DHT22;12521;43.310;21.876;2023-06-22T11:13:41;31.8;90.0
22676;DHT22;12521;43.310;21.876;2023-06-22T11:18:18;32.2;90.0
22676;DHT22;12521;43.310;21.876;2023-06-22T11:22:55;32.2;90.0
22676;DHT22;12521;43.310;21.876;2023-06-22T11:27:32;32.2;90.0
22676;DHT22;12521;43.310;21.876;2023-06-22T11:32:10;32.5;90.0
22676;DHT22;12521;43.310;21.876;2023-06-22T11:36:46;32.5;90.0
22676;DHT22;12521;43.310;21.876;2023-06-22T11:41:23;32.6;89.0
22676;DHT22;12521;43.310;21.876;2023-06-22T11:46:04;32.6;89.0
22676;DHT22;12521;43.310;21.876;2023-06-22T11:50:41;32.8;88.0
22676;DHT22;12521;43.310;21.876;2023-06-22T11:55:17;32.8;88.0
22676;DHT22;12521;43.310;21.876;2023-06-22T11:59:54;33.2;86.0
22676;DHT22;12521;43.310;21.876;2023-06-22T12:04:30;33.2;86.0
22676;DHT22;12521;43.310;21.876;2023-06-22T12:09:07;33.6;84.0
22676;DHT22;12521;43.310;21.876;2023-06-22T12:13:44;33.6;84.0
22676;DHT22;12521;43.310;21.876;2023-06-22T12:18:20;33.8;83.0
22676;DHT22;12521;43.310;21.876;2023-06-22T12:22:58;33.8;83.0
22676;DHT22;12521;43.310;21.876;2023-06-22T12:27:37;33.8;83.0
22676;DHT22;12521;43.310;21.876;2023-06-22T12:32:15;33.9;83.0
22676;DHT22;12521;43.310;21.876;2023-06-22T12:36:52;33.9;83.0
22676;DHT22;12521;43.310;21.876;2023-06-22T12:41:28;34.0;83.0
22676;DHT22;12521;43.310;21.876;2023-06-22T12:46:05;34.0;83.0
22676;DHT22;12521;43.310;21.876;2023-06-22T12:50:42;34.0;83.0
22676;DHT22;12521;43.310;21.876;2023-06-22T12:55:19;34.0;83.0
22676;DHT22;12521;43.310;21.876;2023-06-22T12:59:56;34.1;83.0
22676;DHT22;12521;43.310;21.876;2023-06-22T13:04:33;34.1;83.0
22676;DHT22;12521;43.310;21.876;2023-06-22T13:09:11;34.2;84.0
22676;DHT22;12521;43.310;21.876;2023-06-22T13:13:47;34.2;84.0
22676;DHT22;12521;43.310;21.876;2023-06-22T13:18:24;34.2;84.0
22676;DHT22;12521;43.310;21.876;2023-06-22T13:23:00;34.2;84.0
22676;DHT22;12521;43.310;21.876;2023-06-22T13:27:37;34.2;84.0
22676;DHT22;12521;43.310;21.876;2023-06-22T13:32:13;34.3;83.0
22676;DHT22;12521;43.310;21.876;2023-06-22T13:36:49;34.3;83.0
22676;DHT22;12521;43.310;21.876;2023-06-22T13:41:26;33.6;85.0
22676;DHT22;12521;43.310;21.876;2023-06-22T13:46:03;33.6;85.0
22676;DHT22;12521;43.310;21.876;2023-06-22T13:50:39;33.0;86.0
22676;DHT22;12521;43.310;21.876;2023-06-22T13:55:16;33.0;86.0
22676;DHT22;12521;43.310;21.876;2023-06-22T13:59:53;33.4;86.0
22676;DHT22;12521;43.310;21.876;2023-06-22T14:04:30;33.4;86.0
22676;DHT22;12521;43.310;21.876;2023-06-22T14:09:06;33.9;86.0
22676;DHT22;12521;43.310;21.876;2023-06-22T14:13:43;33.9;86.0
22676;DHT22;12521;43.310;21.876;2023-06-22T14:18:20;33.9;86.0
22676;DHT22;12521;43.310;21.876;2023-06-22T14:22:56;34.3;85.0
22676;DHT22;12521;43.310;21.876;2023-06-22T14:27:33;34.3;85.0
22676;DHT22;12521;43.310;21.876;2023-06-22T14:32:10;34.8;84.0
22676;DHT22;12521;43.310;21.876;2023-06-22T14:36:46;34.8;84.0
22676;DHT22;12521;43.310;21.876;2023-06-22T14:41:23;35.0;84.0
22676;DHT22;12521;43.310;21.876;2023-06-22T14:46:00;35.0;84.0
22676;DHT22;12521;43.310;21.876;2023-06-22T14:50:37;35.1;84.0
22676;DHT22;12521;43.310;21.876;2023-06-22T14:55:13;35.1;84.0
22676;DHT22;12521;43.310;21.876;2023-06-22T14:59:50;35.2;83.0
22676;DHT22;12521;43.310;21.876;2023-06-22T15:04:27;35.2;83.0
22676;DHT22;12521;43.310;21.876;2023-06-22T15:09:03;35.4;82.0
22676;DHT22;12521;43.310;21.876;2023-06-22T15:13:42;35.4;82.0
22676;DHT22;12521;43.310;21.876;2023-06-22T15:18:19;35.4;82.0
22676;DHT22;12521;43.310;21.876;2023-06-22T15:22:58;35.3;82.0
22676;DHT22;12521;43.310;21.876;2023-06-22T15:27:35;35.3;82.0
22676;DHT22;12521;43.310;21.876;2023-06-22T15:32:12;35.3;82.0
22676;DHT22;12521;43.310;21.876;2023-06-22T15:36:48;35.3;82.0
22676;DHT22;12521;43.310;21.876;2023-06-22T15:41:25;35.2;82.0
22676;DHT22;12521;43.310;21.876;2023-06-22T15:46:02;35.2;82.0
22676;DHT22;12521;43.310;21.876;2023-06-22T15:50:39;35.2;82.0
22676;DHT22;12521;43.310;21.876;2023-06-22T15:55:19;35.2;82.0
22676;DHT22;12521;43.310;21.876;2023-06-22T15:59:55;34.8;82.0
22676;DHT22;12521;43.310;21.876;2023-06-22T16:04:32;34.8;82.0
22676;DHT22;12521;43.310;21.876;2023-06-22T16:09:09;34.5;81.0
22676;DHT22;12521;43.310;21.876;2023-06-22T16:13:45;34.5;81.0
22676;DHT22;12521;43.310;21.876;2023-06-22T16:18:21;34.5;81.0
22676;DHT22;12521;43.310;21.876;2023-06-22T16:22:58;34.6;81.0
22676;DHT22;12521;43.310;21.876;2023-06-22T16:27:34;34.6;81.0
22676;DHT22;12521;43.310;21.876;2023-06-22T16:32:11;34.8;80.0
22676;DHT22;12521;43.310;21.876;2023-06-22T16:36:47;34.8;80.0
22676;DHT22;12521;43.310;21.876;2023-06-22T16:41:24;35.3;80.0
22676;DHT22;12521;43.310;21.876;2023-06-22T16:46:01;35.3;80.0
22676;DHT22;12521;43.310;21.876;2023-06-22T16:50:38;35.9;81.0
22676;DHT22;12521;43.310;21.876;2023-06-22T16:55:15;35.9;81.0
22676;DHT22;12521;43.310;21.876;2023-06-22T16:59:53;36.0;81.0
22676;DHT22;12521;43.310;21.876;2023-06-22T17:04:36;36.0;81.0
22676;DHT22;12521;43.310;21.876;2023-06-22T17:09:26;36.2;82.0
22676;DHT22;12521;43.310;21.876;2023-06-22T17:14:03;36.2;82.0
22676;DHT22;12521;43.310;21.876;2023-06-22T17:18:44;35.6;83.0
22676;DHT22;12521;43.310;21.876;2023-06-22T17:23:27;35.6;83.0
22676;DHT22;12521;43.310;21.876;2023-06-22T17:28:04;35.6;83.0
22676;DHT22;12521;43.310;21.876;2023-06-22T17:32:48;35.0;85.0
22676;DHT22;12521;43.310;21.876;2023-06-22T17:37:25;35.0;85.0
22676;DHT22;12521;43.310;21.876;2023-06-22T17:42:08;33.8;88.0
22676;DHT22;12521;43.310;21.876;2023-06-22T17:46:44;33.8;88.0
22676;DHT22;12521;43.310;21.876;2023-06-22T17:51:21;32.7;91.0
22676;DHT22;12521;43.310;21.876;2023-06-22T17:56:00;32.7;91.0
22676;DHT22;12521;43.310;21.876;2023-06-22T18:00:40;31.8;93.0
22676;DHT22;12521;43.310;21.876;2023-06-22T18:05:28;31.8;93.0
22676;DHT22;12521;43.310;21.876;2023-06-22T18:10:10;31.0;95.0
22676;DHT22;12521;43.310;21.876;2023-06-22T18:14:48;31.0;95.0
22676;DHT22;12521;43.310;21.876;2023-06-22T18:19:31;30.7;96.0
22676;DHT22;12521;43.310;21.876;2023-06-22T18:24:17;30.7;96.0
22676;DHT22;12521;43.310;21.876;2023-06-22T18:28:58;30.4;96.0
22676;DHT22;12521;43.310;21.876;2023-06-22T18:33:34;30.4;96.0
22676;DHT22;12521;43.310;21.876;2023-06-22T18:38:12;30.4;96.0
22676;DHT22;12521;43.310;21.876;2023-06-22T18:42:50;30.2;96.0
22676;DHT22;12521;43.310;21.876;2023-06-22T18:47:30;30.2;96.0
22676;DHT22;12521;43.310;21.876;2023-06-22T18:52:25;29.9;96.0
22676;DHT22;12521;43.310;21.876;2023-06-22T18:57:16;29.9;96.0
22676;DHT22;12521;43.310;21.876;2023-06-22T19:01:52;29.6;96.0
22676;DHT22;12521;43.310;21.876;2023-06-22T19:06:55;29.6;96.0
22676;DHT22;12521;43.310;21.876;2023-06-22T19:11:32;29.2;96.0
22676;DHT22;12521;43.310;21.876;2023-06-22T19:16:08;29.2;96.0
22676;DHT22;12521;43.310;21.876;2023-06-22T19:20:51;28.8;96.0
22676;DHT22;12521;43.310;21.876;2023-06-22T19:25:37;28.8;96.0
22676;DHT22;12521;43.310;21.876;2023-06-22T19:30:24;28.5;96.0
22676;DHT22;12521;43.310;21.876;2023-06-22T19:35:08;28.5;96.0
22676;DHT22;12521;43.310;21.876;2023-06-22T19:39:45;28.2;96.0
22676;DHT22;12521;43.310;21.876;2023-06-22T19:44:22;28.2;96.0
22676;DHT22;12521;43.310;21.876;2023-06-22T19:49:04;28.0;96.0
22676;DHT22;12521;43.310;21.876;2023-06-22T19:53:41;28.0;96.0
22676;DHT22;12521;43.310;21.876;2023-06-22T19:58:21;28.0;96.0
22676;DHT22;12521;43.310;21.876;2023-06-22T20:02:58;27.8;96.0
22676;DHT22;12521;43.310;21.876;2023-06-22T20:07:39;27.8;96.0
22676;DHT22;12521;43.310;21.876;2023-06-22T20:12:24;27.6;96.0
22676;DHT22;12521;43.310;21.876;2023-06-22T20:17:00;27.6;96.0
22676;DHT22;12521;43.310;21.876;2023-06-22T20:21:39;27.4;96.0
22676;DHT22;12521;43.310;21.876;2023-06-22T20:26:18;27.4;96.0
22676;DHT22;12521;43.310;21.876;2023-06-22T20:31:07;27.3;96.0
22676;DHT22;12521;43.310;21.876;2023-06-22T20:35:45;27.3;96.0
22676;DHT22;12521;43.310;21.876;2023-06-22T20:40:25;27.2;96.0
22676;DHT22;12521;43.310;21.876;2023-06-22T20:45:05;27.2;96.0
22676;DHT22;12521;43.310;21.876;2023-06-22T20:49:43;27.1;96.0
22676;DHT22;12521;43.310;21.876;2023-06-22T20:54:20;27.1;96.0
22676;DHT22;12521;43.310;21.876;2023-06-22T20:58:57;26.8;96.0
22676;DHT22;12521;43.310;21.876;2023-06-22T21:03:34;26.8;96.0
22676;DHT22;12521;43.310;21.876;2023-06-22T21:08:11;26.8;96.0
22676;DHT22;12521;43.310;21.876;2023-06-22T21:12:50;26.6;96.0
22676;DHT22;12521;43.310;21.876;2023-06-22T21:17:26;26.6;96.0
22676;DHT22;12521;43.310;21.876;2023-06-22T21:22:04;26.4;96.0
22676;DHT22;12521;43.310;21.876;2023-06-22T21:26:41;26.4;96.0
22676;DHT22;12521;43.310;21.876;2023-06-22T21:31:18;26.3;96.0
22676;DHT22;12521;43.310;21.876;2023-06-22T21:35:54;26.3;96.0
22676;DHT22;12521;43.310;21.876;2023-06-22T21:40:31;26.1;96.0
22676;DHT22;12521;43.310;21.876;2023-06-22T21:45:10;26.1;96.0
22676;DHT22;12521;43.310;21.876;2023-06-22T21:49:46;25.9;96.0
22676;DHT22;12521;43.310;21.876;2023-06-22T21:54:23;25.9;96.0
22676;DHT22;12521;43.310;21.876;2023-06-22T21:58:59;25.7;96.0
22676;DHT22;12521;43.310;21.876;2023-06-22T22:03:36;25.7;96.0
22676;DHT22;12521;43.310;21.876;2023-06-22T22:08:13;25.7;96.0
22676;DHT22;12521;43.310;21.876;2023-06-22T22:12:52;25.5;96.0
22676;DHT22;12521;43.310;21.876;2023-06-22T22:17:28;25.5;96.0
22676;DHT22;12521;43.310;21.876;2023-06-22T22:22:05;25.4;96.0
22676;DHT22;12521;43.310;21.876;2023-06-22T22:26:42;25.4;96.0
22676;DHT22;12521;43.310;21.876;2023-06-22T22:31:19;25.3;96.0
22676;DHT22;12521;43.310;21.876;2023-06-22T22:35:56;25.3;96.0
22676;DHT22;12521;43.310;21.876;2023-06-22T22:40:33;25.2;96.0
22676;DHT22;12521;43.310;21.876;2023-06-22T22:45:10;25.2;96.0
22676;DHT22;12521;43.310;21.876;2023-06-22T22:49:47;25.0;96.0
22676;DHT22;12521;43.310;21.876;2023-06-22T22:54:24;25.0;96.0
22676;DHT22;12521;43.310;21.876;2023-06-22T22:59:00;24.8;96.0
22676;DHT22;12521;43.310;21.876;2023-06-22T23:03:37;24.8;96.0
22676;DHT22;12521;43.310;21.876;2023-06-22T23:08:14;24.8;96.0
22676;DHT22;12521;43.310;21.876;2023-06-22T23:12:51;24.7;96.0
22676;DHT22;12521;43.310;21.876;2023-06-22T23:17:27;24.7;96.0
22676;DHT22;12521;43.310;21.876;2023-06-22T23:22:06;24.5;96.0
22676;DHT22;12521;43.310;21.876;2023-06-22T23:26:42;24.5;96.0
22676;DHT22;12521;43.310;21.876;2023-06-22T23:31:19;24.3;96.0
22676;DHT22;12521;43.310;21.876;2023-06-22T23:35:56;24.3;96.0
22676;DHT22;12521;43.310;21.876;2023-06-22T23:40:33;24.2;96.0
22676;DHT22;12521;43.310;21.876;2023-06-22T23:45:10;24.2;96.0
22676;DHT22;12521;43.310;21.876;2023-06-22T23:49:47;24.1;96.0
22676;DHT22;12521;43.310;21.876;2023-06-22T23:54:23;24.1;96.0
22676;DHT22;12521;43.310;21.876;2023-06-22T23:59:00;24.0;96.0
